createdAt,value
2019-05-19T00:01:44.096Z,67.97
2019-05-19T00:04:13.838Z,72.32
2019-05-19T00:06:43.478Z,67.75
2019-05-19T00:09:16.391Z,68.95
2019-05-19T00:11:44.670Z,69.80
2019-05-19T00:14:14.230Z,70.12
2019-05-19T00:16:43.995Z,70.62
2019-05-19T00:19:25.767Z,70.90
2019-05-19T00:21:45.243Z,68.87
2019-05-19T00:24:14.912Z,72.03
2019-05-19T00:26:44.557Z,73.30
2019-05-19T00:29:14.271Z,72.87
2019-05-19T00:31:43.931Z,71.55
2019-05-19T00:34:13.743Z,70.25
2019-05-19T00:36:43.387Z,69.60
2019-05-19T00:39:13.084Z,70.17
2019-05-19T00:41:42.825Z,74.97
2019-05-19T00:44:12.582Z,73.70
2019-05-19T00:46:42.309Z,75.45
2019-05-19T00:49:12.126Z,77.53
2019-05-19T00:51:41.898Z,72.95
2019-05-19T00:54:11.570Z,75.92
2019-05-19T00:56:41.946Z,75.92
2019-05-19T00:59:12.156Z,77.55
2019-05-19T01:01:41.946Z,75.00
2019-05-19T01:04:11.600Z,78.05
2019-05-19T01:06:41.253Z,81.72
2019-05-19T01:09:11.883Z,77.75
2019-05-19T01:11:41.676Z,79.67
2019-05-19T01:14:11.389Z,78.72
2019-05-19T01:16:41.097Z,77.82
2019-05-19T01:19:10.895Z,81.12
2019-05-19T01:21:41.908Z,79.92
2019-05-19T01:24:11.551Z,78.47
2019-05-19T01:26:41.298Z,80.60
2019-05-19T01:29:11.104Z,77.82
2019-05-19T01:31:40.829Z,77.82
2019-05-19T01:34:10.550Z,80.42
2019-05-19T01:36:41.072Z,77.78
2019-05-19T01:39:10.936Z,80.30
2019-05-19T01:41:40.669Z,79.00
2019-05-19T01:44:10.469Z,77.60
2019-05-19T01:46:40.122Z,76.85
2019-05-19T01:49:10.405Z,77.17
2019-05-19T01:51:40.024Z,83.22
2019-05-19T01:54:09.829Z,82.40
2019-05-19T01:56:39.600Z,80.28
2019-05-19T01:59:09.340Z,80.57
2019-05-19T02:01:39.053Z,78.07
2019-05-19T02:04:08.767Z,77.75
2019-05-19T02:06:38.612Z,79.27
2019-05-19T02:09:08.432Z,79.17
2019-05-19T02:11:38.164Z,81.90
2019-05-19T02:14:08.080Z,77.92
2019-05-19T02:16:37.892Z,82.12
2019-05-19T02:19:07.631Z,78.83
2019-05-19T02:21:37.284Z,80.67
2019-05-19T02:24:07.054Z,80.95
2019-05-19T02:26:36.846Z,80.60
2019-05-19T02:29:06.633Z,81.50
2019-05-19T02:31:36.278Z,81.67
2019-05-19T02:34:05.982Z,78.33
2019-05-19T02:36:35.880Z,83.92
2019-05-19T02:39:07.280Z,79.55
2019-05-19T02:41:40.189Z,80.75
2019-05-19T02:44:10.800Z,82.88
2019-05-19T02:46:42.409Z,82.22
2019-05-19T02:49:13.225Z,82.53
2019-05-19T02:51:47.004Z,84.03
2019-05-19T02:54:17.235Z,81.80
2019-05-19T02:56:49.144Z,82.67
2019-05-19T02:59:21.899Z,79.80
2019-05-19T03:02:02.148Z,83.97
2019-05-19T03:04:32.020Z,85.77
2019-05-19T03:07:01.697Z,80.30
2019-05-19T03:09:31.548Z,83.50
2019-05-19T03:12:01.275Z,84.45
2019-05-19T03:14:30.933Z,83.07
2019-05-19T03:17:00.579Z,83.82
2019-05-19T03:19:30.290Z,87.22
2019-05-19T03:22:00.016Z,83.65
2019-05-19T03:24:29.750Z,85.87
2019-05-19T03:26:59.470Z,85.12
2019-05-19T03:29:30.833Z,83.58
2019-05-19T03:32:02.117Z,85.57
2019-05-19T03:34:31.921Z,83.95
2019-05-19T03:37:01.643Z,88.10
2019-05-19T03:39:31.341Z,87.40
2019-05-19T03:42:01.023Z,89.42
2019-05-19T03:44:30.838Z,88.05
2019-05-19T03:47:00.485Z,84.35
2019-05-19T03:49:30.193Z,88.75
2019-05-19T03:51:59.887Z,85.53
2019-05-19T03:54:29.529Z,89.70
2019-05-19T03:56:59.186Z,87.17
2019-05-19T03:59:28.935Z,88.33
2019-05-19T04:01:58.629Z,86.12
2019-05-19T04:04:28.379Z,80.87
2019-05-19T04:06:58.029Z,91.87
2019-05-19T04:09:28.147Z,83.92
2019-05-19T04:11:57.873Z,93.20
2019-05-19T04:14:27.584Z,88.72
2019-05-19T04:16:57.236Z,88.42
2019-05-19T04:19:27.136Z,88.00
2019-05-19T04:21:56.810Z,91.63
2019-05-19T04:24:27.122Z,90.75
2019-05-19T04:26:56.776Z,93.40
2019-05-19T04:29:26.552Z,90.67
2019-05-19T04:31:56.263Z,86.97
2019-05-19T04:34:25.951Z,96.25
2019-05-19T04:36:55.604Z,88.85
2019-05-19T04:39:25.820Z,93.87
2019-05-19T04:41:55.528Z,90.65
2019-05-19T04:44:26.946Z,93.10
2019-05-19T04:46:56.578Z,95.77
2019-05-19T04:49:26.203Z,96.42
2019-05-19T04:52:05.916Z,94.17
2019-05-19T04:54:27.876Z,87.88
2019-05-19T04:56:57.530Z,89.05
2019-05-19T04:59:28.072Z,87.67
2019-05-19T05:01:57.781Z,85.75
2019-05-19T05:04:29.454Z,88.00
2019-05-19T05:06:58.953Z,90.05
2019-05-19T05:09:28.712Z,90.92
2019-05-19T05:11:58.436Z,89.00
2019-05-19T05:14:28.124Z,88.15
2019-05-19T05:16:57.970Z,91.35
2019-05-19T05:19:27.741Z,88.78
2019-05-19T05:21:57.448Z,89.55
2019-05-19T05:28:25.821Z,83.60
2019-05-19T05:30:55.455Z,90.92
2019-05-19T05:33:25.030Z,85.55
2019-05-19T05:35:54.752Z,88.15
2019-05-19T05:38:24.471Z,88.67
2019-05-19T05:40:54.187Z,85.83
2019-05-19T05:43:23.901Z,87.02
2019-05-19T05:45:53.705Z,88.52
2019-05-19T05:48:24.267Z,90.00
2019-05-19T05:50:53.976Z,87.47
2019-05-19T05:53:23.698Z,88.05
2019-05-19T05:55:53.413Z,86.30
2019-05-19T05:58:23.098Z,87.82
2019-05-19T06:00:52.741Z,90.77
2019-05-19T06:03:52.007Z,88.22
2019-05-19T06:06:21.624Z,88.12
2019-05-19T06:08:51.279Z,88.10
2019-05-19T06:11:20.834Z,88.78
2019-05-19T06:14:24.169Z,84.92
2019-05-19T06:16:53.939Z,84.67
2019-05-19T06:19:23.661Z,87.75
2019-05-19T06:21:53.354Z,90.10
2019-05-19T06:24:22.983Z,81.60
2019-05-19T06:26:52.738Z,81.12
2019-05-19T06:29:22.447Z,81.28
2019-05-19T06:31:53.353Z,82.12
2019-05-19T06:34:22.993Z,85.12
2019-05-19T06:36:55.068Z,84.00
2019-05-19T06:39:23.784Z,82.17
2019-05-19T06:41:53.365Z,79.17
2019-05-19T06:44:24.063Z,77.22
2019-05-19T06:46:54.022Z,82.82
2019-05-19T06:49:23.640Z,83.67
2019-05-19T06:51:53.444Z,79.27
2019-05-19T06:54:22.912Z,81.55
2019-05-19T06:56:52.622Z,83.82
2019-05-19T06:59:22.431Z,81.95
2019-05-19T07:01:52.148Z,79.10
2019-05-19T07:04:21.830Z,76.53
2019-05-19T07:06:51.574Z,73.55
2019-05-19T07:09:22.250Z,75.05
2019-05-19T07:11:53.765Z,74.27
2019-05-19T07:14:23.477Z,77.92
2019-05-19T07:16:53.134Z,75.52
2019-05-19T07:19:22.770Z,72.12
2019-05-19T07:21:52.489Z,75.42
2019-05-19T07:24:22.291Z,73.20
2019-05-19T07:26:51.950Z,74.42
2019-05-19T07:29:21.639Z,75.00
2019-05-19T07:31:51.360Z,72.75
2019-05-19T07:34:21.079Z,66.55
2019-05-19T07:36:50.792Z,69.77
2019-05-19T07:39:20.538Z,70.95
2019-05-19T07:41:50.261Z,67.03
2019-05-19T07:44:20.062Z,64.58
2019-05-19T07:46:58.993Z,66.72
2019-05-19T07:49:28.565Z,64.42
2019-05-19T07:51:58.248Z,64.85
2019-05-19T07:54:27.948Z,64.35
2019-05-19T07:56:57.646Z,62.98
2019-05-19T07:59:27.366Z,59.40
2019-05-19T08:01:57.133Z,56.77
2019-05-19T08:04:26.850Z,63.50
2019-05-19T08:06:56.644Z,61.37
2019-05-19T08:09:26.339Z,61.95
2019-05-19T08:11:56.078Z,61.00
2019-05-19T08:14:25.839Z,59.90
2019-05-19T08:16:55.517Z,60.00
2019-05-19T08:19:25.092Z,55.78
2019-05-19T08:21:54.762Z,56.35
2019-05-19T08:24:38.072Z,60.90
2019-05-19T08:27:38.641Z,56.90
2019-05-19T08:39:08.900Z,55.03
2019-05-19T08:41:39.459Z,52.38
2019-05-19T08:44:11.323Z,55.00
2019-05-19T08:46:41.087Z,58.08
2019-05-19T08:49:10.770Z,54.85
2019-05-19T08:51:40.692Z,57.90
2019-05-19T08:54:14.958Z,56.42
2019-05-19T08:56:46.970Z,58.58
2019-05-19T08:59:17.574Z,57.75
2019-05-19T09:01:51.703Z,57.15
2019-05-19T09:04:23.298Z,56.20
2019-05-19T09:06:53.753Z,55.92
2019-05-19T09:09:24.722Z,58.55
2019-05-19T09:11:54.513Z,58.80
2019-05-19T09:14:28.901Z,56.53
2019-05-19T09:17:10.587Z,55.55
2019-05-19T09:19:44.831Z,54.53
2019-05-19T09:22:15.400Z,54.80
2019-05-19T09:25:11.097Z,53.68
2019-05-19T09:27:52.289Z,51.30
2019-05-19T09:30:23.682Z,51.98
2019-05-19T09:32:54.446Z,54.45
2019-05-19T09:35:24.294Z,51.85
2019-05-19T09:37:55.666Z,49.95
2019-05-19T09:40:26.861Z,50.33
2019-05-19T09:42:57.681Z,52.90
2019-05-19T09:45:27.474Z,51.20
2019-05-19T09:47:57.311Z,51.25
2019-05-19T09:50:27.019Z,53.40
2019-05-19T09:52:57.221Z,50.10
2019-05-19T09:55:28.186Z,50.92
2019-05-19T09:57:58.055Z,50.17
2019-05-19T10:00:29.475Z,50.45
2019-05-19T10:02:59.219Z,51.10
2019-05-19T10:05:30.297Z,51.18
2019-05-19T10:08:00.097Z,49.95
2019-05-19T10:10:40.223Z,49.45
2019-05-19T10:13:09.965Z,49.18
2019-05-19T10:15:39.877Z,47.30
2019-05-19T10:18:10.523Z,46.92
2019-05-19T10:20:41.904Z,45.48
2019-05-19T10:23:11.738Z,43.55
2019-05-19T10:25:41.655Z,44.88
2019-05-19T10:28:11.470Z,43.65
2019-05-19T10:30:42.863Z,43.10
2019-05-19T10:33:12.591Z,41.42
2019-05-19T10:35:59.237Z,40.43
2019-05-19T10:38:32.198Z,39.30
2019-05-19T10:41:02.507Z,38.70
2019-05-19T10:43:32.439Z,39.60
2019-05-19T10:46:03.633Z,37.55
2019-05-19T10:48:35.700Z,38.80
2019-05-19T10:51:05.584Z,37.75
2019-05-19T10:53:36.989Z,37.42
2019-05-19T10:56:09.039Z,37.48
2019-05-19T10:58:38.801Z,38.45
2019-05-19T11:01:08.619Z,37.25
2019-05-19T11:06:31.469Z,35.28
2019-05-19T11:09:01.274Z,36.35
2019-05-19T11:11:31.196Z,38.08
2019-05-19T11:14:01.953Z,36.50
2019-05-19T11:16:31.705Z,35.55
2019-05-19T11:19:01.443Z,36.10
2019-05-19T11:21:31.397Z,37.55
2019-05-19T11:27:18.720Z,33.88
2019-05-19T11:29:50.192Z,34.75
2019-05-19T11:32:32.253Z,36.73
2019-05-19T11:35:04.733Z,35.30
2019-05-19T11:37:36.685Z,36.48
2019-05-19T11:40:07.398Z,35.70
2019-05-19T11:42:37.967Z,35.45
2019-05-19T11:45:09.328Z,35.40
2019-05-19T11:47:40.580Z,36.93
2019-05-19T11:50:15.003Z,35.43
2019-05-19T11:52:53.683Z,37.88
2019-05-19T11:55:24.335Z,35.98
2019-05-19T11:57:54.226Z,36.98
2019-05-19T12:00:25.174Z,35.83
2019-05-19T12:02:55.156Z,35.50
2019-05-19T12:05:25.043Z,35.50
2019-05-19T12:07:54.831Z,37.13
2019-05-19T12:10:24.632Z,36.50
2019-05-19T12:12:54.418Z,36.17
2019-05-19T12:15:24.163Z,35.98
2019-05-19T12:17:53.973Z,34.98
2019-05-19T12:20:23.806Z,34.13
2019-05-19T12:22:53.518Z,35.78
2019-05-19T12:25:23.390Z,34.78
2019-05-19T12:27:53.379Z,31.90
2019-05-19T12:30:26.056Z,33.02
2019-05-19T12:33:51.692Z,34.30
2019-05-19T12:36:18.743Z,34.63
2019-05-19T12:38:50.653Z,32.65
2019-05-19T12:41:23.720Z,32.33
2019-05-19T12:43:59.450Z,32.10
2019-05-19T12:46:32.371Z,30.40
2019-05-19T12:49:13.093Z,32.40
2019-05-19T12:57:57.764Z,31.65
2019-05-19T13:00:35.918Z,31.77
2019-05-19T13:03:29.291Z,30.25
2019-05-19T13:06:23.231Z,32.38
2019-05-19T13:08:52.954Z,29.85
2019-05-19T13:11:22.695Z,29.07
2019-05-19T13:13:52.658Z,28.45
2019-05-19T13:16:22.570Z,27.75
2019-05-19T13:18:52.377Z,28.45
2019-05-19T13:21:22.188Z,28.10
2019-05-19T13:23:52.032Z,27.98
2019-05-19T13:26:21.756Z,30.70
2019-05-19T13:28:52.177Z,30.17
2019-05-19T13:31:22.047Z,34.65
2019-05-19T13:33:52.666Z,32.45
2019-05-19T13:36:23.092Z,31.10
2019-05-19T13:38:52.846Z,33.35
2019-05-19T13:41:25.130Z,34.10
2019-05-19T13:44:08.178Z,33.18
2019-05-19T13:46:44.522Z,31.00
2019-05-19T13:49:17.021Z,29.33
2019-05-19T13:51:47.989Z,35.33
2019-05-19T13:54:17.916Z,32.33
2019-05-19T13:56:48.152Z,36.90
2019-05-19T13:59:25.115Z,34.90
2019-05-19T14:01:54.953Z,34.13
2019-05-19T14:04:29.462Z,32.93
2019-05-19T14:07:00.918Z,33.65
2019-05-19T14:09:33.971Z,34.25
2019-05-19T14:12:04.476Z,36.35
2019-05-19T14:14:38.668Z,33.63
2019-05-19T14:17:09.742Z,32.65
2019-05-19T14:19:42.533Z,35.45
2019-05-19T14:22:15.684Z,35.15
2019-05-19T14:24:51.936Z,33.92
2019-05-19T14:27:30.448Z,36.83
2019-05-19T14:35:51.151Z,35.15
2019-05-19T14:38:23.648Z,37.23
2019-05-19T14:40:54.219Z,37.67
2019-05-19T14:43:27.221Z,34.65
2019-05-19T14:45:59.673Z,38.28
2019-05-19T14:48:31.792Z,39.80
2019-05-19T14:51:05.128Z,38.38
2019-05-19T14:53:40.961Z,37.53
2019-05-19T14:56:14.639Z,38.67
2019-05-19T14:58:51.088Z,39.38
2019-05-19T15:01:26.636Z,38.42
2019-05-19T15:03:59.596Z,38.35
2019-05-19T15:06:34.952Z,38.42
2019-05-19T15:09:10.085Z,38.53
2019-05-19T15:11:53.277Z,40.25
2019-05-19T15:14:29.476Z,37.63
2019-05-19T15:17:19.339Z,40.78
2019-05-19T15:22:48.219Z,42.20
2019-05-19T15:25:18.807Z,43.45
2019-05-19T15:27:59.744Z,45.23
2019-05-19T15:30:21.529Z,44.88
2019-05-19T15:32:51.750Z,43.83
2019-05-19T15:35:23.416Z,45.30
2019-05-19T15:37:53.351Z,45.85
2019-05-19T15:40:24.252Z,47.93
2019-05-19T15:42:56.217Z,46.73
2019-05-19T15:45:27.649Z,45.78
2019-05-19T15:51:03.121Z,45.83
2019-05-19T15:53:40.292Z,46.90
2019-05-19T15:56:19.968Z,47.10
2019-05-19T15:58:52.751Z,46.25
2019-05-19T16:01:24.014Z,44.67
2019-05-19T16:03:55.602Z,43.38
2019-05-19T16:06:26.887Z,45.10
2019-05-19T16:08:56.720Z,46.40
2019-05-19T16:11:26.567Z,46.05
2019-05-19T16:13:59.619Z,47.38
2019-05-19T16:16:30.504Z,46.25
2019-05-19T16:19:00.374Z,46.88
2019-05-19T16:21:30.213Z,48.30
2019-05-19T16:24:00.039Z,47.90
2019-05-19T16:26:30.697Z,45.20
2019-05-19T16:29:00.643Z,44.48
2019-05-19T16:31:30.427Z,45.10
2019-05-19T16:34:01.240Z,46.42
2019-05-19T16:36:34.446Z,45.80
2019-05-19T16:39:06.050Z,44.95
2019-05-19T16:41:36.664Z,44.23
2019-05-19T16:44:06.683Z,46.05
2019-05-19T16:46:36.575Z,47.88
2019-05-19T16:49:06.410Z,45.63
2019-05-19T16:51:36.184Z,46.80
2019-05-19T16:54:07.589Z,45.05
2019-05-19T16:56:38.239Z,47.15
2019-05-19T16:59:08.163Z,45.12
2019-05-19T17:01:38.058Z,45.50
2019-05-19T17:04:07.697Z,44.10
2019-05-19T17:06:37.519Z,45.73
2019-05-19T17:09:07.398Z,43.73
2019-05-19T17:11:37.124Z,46.50
2019-05-19T17:14:06.925Z,45.45
2019-05-19T17:16:36.425Z,44.23
2019-05-19T17:19:06.122Z,44.53
2019-05-19T17:21:35.879Z,44.33
2019-05-19T17:24:05.672Z,42.58
2019-05-19T17:26:35.384Z,43.70
2019-05-19T17:29:05.110Z,41.88
2019-05-19T17:31:34.834Z,42.05
2019-05-19T17:34:04.534Z,43.85
2019-05-19T17:36:34.206Z,42.60
2019-05-19T17:39:05.442Z,45.10
2019-05-19T17:41:35.176Z,42.90
2019-05-19T17:44:04.904Z,43.02
2019-05-19T17:49:40.900Z,42.98
2019-05-19T17:52:10.673Z,42.23
2019-05-19T17:54:40.536Z,44.35
2019-05-19T17:57:10.658Z,42.62
2019-05-19T17:59:44.341Z,43.23
2019-05-19T18:02:15.070Z,43.75
2019-05-19T18:04:44.825Z,42.83
2019-05-19T18:07:14.541Z,42.88
2019-05-19T18:09:44.404Z,42.45
2019-05-19T18:12:14.159Z,44.30
2019-05-19T18:14:43.910Z,42.38
2019-05-19T18:17:13.758Z,41.05
2019-05-19T18:19:43.514Z,42.88
2019-05-19T18:22:13.253Z,42.67
2019-05-19T18:24:43.440Z,42.40
2019-05-19T18:27:13.275Z,43.87
2019-05-19T18:29:42.915Z,43.68
2019-05-19T18:32:12.822Z,46.50
2019-05-19T18:34:59.106Z,48.28
2019-05-19T18:37:34.240Z,47.13
2019-05-19T18:40:05.338Z,44.23
2019-05-19T18:42:35.147Z,43.25
2019-05-19T18:45:06.032Z,44.75
2019-05-19T18:47:35.831Z,45.67
2019-05-19T18:50:07.753Z,43.52
2019-05-19T18:52:37.695Z,42.35
2019-05-19T18:55:08.675Z,43.45
2019-05-19T18:57:38.896Z,45.65
2019-05-19T19:00:20.527Z,44.73
2019-05-19T19:02:51.649Z,42.60
2019-05-19T19:05:21.352Z,42.48
2019-05-19T19:07:53.478Z,43.02
2019-05-19T19:10:24.153Z,41.68
2019-05-19T19:12:53.828Z,43.15
2019-05-19T19:15:23.621Z,44.50
2019-05-19T19:17:53.285Z,42.40
2019-05-19T19:20:22.948Z,46.23
2019-05-19T19:22:54.138Z,44.93
2019-05-19T19:25:24.088Z,44.85
2019-05-19T19:27:54.189Z,45.25
2019-05-19T19:30:26.452Z,43.87
2019-05-19T19:32:55.396Z,41.85
2019-05-19T19:35:25.210Z,45.80
2019-05-19T19:37:55.066Z,43.90
2019-05-19T19:40:30.617Z,46.70
2019-05-19T19:43:01.478Z,47.25
2019-05-19T19:45:31.402Z,48.40
2019-05-19T19:48:01.178Z,49.53
2019-05-19T19:50:30.976Z,50.55
2019-05-19T19:53:02.754Z,51.85
2019-05-19T19:55:32.795Z,49.10
2019-05-19T19:58:02.624Z,48.68
2019-05-19T20:00:40.961Z,51.42
2019-05-19T20:03:11.751Z,48.23
2019-05-19T20:05:42.839Z,52.23
2019-05-19T20:08:12.745Z,52.60
2019-05-19T20:10:42.651Z,51.10
2019-05-19T20:13:12.542Z,52.60
2019-05-19T20:15:42.482Z,51.77
2019-05-19T20:18:12.229Z,50.43
2019-05-19T20:20:41.880Z,51.98
2019-05-19T20:23:12.713Z,52.62
2019-05-19T20:25:42.554Z,51.55
2019-05-19T20:28:12.267Z,51.77
2019-05-19T20:30:42.036Z,46.28
2019-05-19T20:33:17.619Z,51.15
2019-05-19T20:35:47.489Z,53.58
2019-05-19T20:38:17.281Z,55.03
2019-05-19T20:40:47.287Z,52.85
2019-05-19T20:43:30.477Z,56.33
2019-05-19T20:46:00.261Z,54.63
2019-05-19T20:48:32.670Z,55.28
2019-05-19T20:51:03.159Z,54.80
2019-05-19T20:53:32.969Z,55.10
2019-05-19T20:56:02.840Z,54.03
2019-05-19T20:58:32.722Z,54.15
2019-05-19T21:01:02.514Z,54.10
2019-05-19T21:03:32.249Z,54.77
2019-05-19T21:06:02.150Z,57.48
2019-05-19T21:08:31.762Z,55.10
2019-05-19T21:11:02.286Z,55.52
2019-05-19T21:13:32.920Z,52.95
2019-05-19T21:16:02.510Z,56.45
2019-05-19T21:18:32.268Z,54.25
2019-05-19T21:21:01.983Z,55.80
2019-05-19T21:23:31.792Z,56.02
2019-05-19T21:26:01.541Z,54.48
2019-05-19T21:28:31.189Z,50.98
2019-05-19T21:31:05.718Z,52.17
2019-05-19T21:33:32.483Z,48.70
2019-05-19T21:36:02.065Z,46.63
2019-05-19T21:38:31.790Z,49.85
2019-05-19T21:41:01.577Z,45.28
2019-05-19T21:43:31.156Z,44.40
2019-05-19T21:46:00.875Z,42.10
2019-05-19T21:48:34.575Z,39.90
2019-05-19T21:51:04.314Z,42.30
2019-05-19T21:53:34.034Z,42.48
2019-05-19T21:56:03.725Z,43.73
2019-05-19T21:58:33.480Z,46.63
2019-05-19T22:01:03.958Z,50.10
2019-05-19T22:03:33.873Z,51.65
2019-05-19T22:06:03.662Z,52.95
2019-05-19T22:08:33.420Z,51.20
2019-05-19T22:11:04.640Z,50.12
2019-05-19T22:13:34.519Z,51.33
2019-05-19T22:16:12.828Z,48.85
2019-05-19T22:18:35.979Z,50.83
2019-05-19T22:21:05.763Z,48.85
2019-05-19T22:23:35.528Z,48.40
2019-05-19T22:26:05.279Z,46.95
2019-05-19T22:28:35.006Z,46.28
2019-05-19T22:31:04.812Z,47.20
2019-05-19T22:33:36.716Z,48.80
2019-05-19T22:36:06.532Z,49.00
2019-05-19T22:38:36.296Z,50.05
2019-05-19T22:41:06.166Z,49.40
2019-05-19T22:43:35.831Z,47.98
2019-05-19T22:46:05.578Z,51.08
2019-05-19T22:48:35.320Z,49.27
2019-05-19T22:51:05.756Z,49.33
2019-05-19T22:53:37.181Z,47.93
2019-05-19T22:56:06.957Z,46.63
2019-05-19T22:58:36.770Z,48.28
2019-05-19T23:01:06.764Z,48.10
2019-05-19T23:03:37.393Z,49.58
2019-05-19T23:06:07.235Z,49.30
2019-05-19T23:08:37.139Z,45.03
2019-05-19T23:11:06.929Z,49.48
2019-05-19T23:13:37.126Z,49.50
2019-05-19T23:16:07.202Z,47.50
2019-05-19T23:18:37.818Z,44.35
2019-05-19T23:21:07.677Z,46.88
2019-05-19T23:23:38.422Z,48.73
2019-05-19T23:26:08.217Z,44.10
2019-05-19T23:28:38.824Z,46.45
2019-05-19T23:31:08.799Z,46.88
2019-05-19T23:33:38.631Z,46.85
2019-05-19T23:36:08.466Z,49.03
2019-05-19T23:38:38.293Z,51.13
2019-05-19T23:41:08.940Z,50.95
2019-05-19T23:43:38.856Z,49.58
2019-05-19T23:46:09.467Z,51.37
2019-05-19T23:48:39.266Z,50.92
2019-05-19T23:51:09.017Z,48.33
2019-05-19T23:53:38.852Z,50.30
2019-05-19T23:56:08.683Z,51.00
2019-05-19T23:58:38.391Z,50.60
